sensor_id;sensor_type;location;lat;lon;timestamp;temperature;humidity
22173;DHT22;11252;50.596;17.648;2023-03-01T00:01:20;-3.40;92.20
22173;DHT22;11252;50.596;17.648;2023-03-01T00:03:48;-3.40;92.20
22173;DHT22;11252;50.596;17.648;2023-03-01T00:06:16;-3.40;92.20
22173;DHT22;11252;50.596;17.648;2023-03-01T00:08:44;-3.40;92.20
22173;DHT22;11252;50.596;17.648;2023-03-01T00:11:17;-3.40;92.20
22173;DHT22;11252;50.596;17.648;2023-03-01T00:13:46;-3.50;92.20
22173;DHT22;11252;50.596;17.648;2023-03-01T00:16:18;-3.50;92.20
22173;DHT22;11252;50.596;17.648;2023-03-01T00:18:46;-3.50;92.20
22173;DHT22;11252;50.596;17.648;2023-03-01T00:21:13;-3.50;92.20
22173;DHT22;11252;50.596;17.648;2023-03-01T00:23:41;-3.50;92.20
22173;DHT22;11252;50.596;17.648;2023-03-01T00:26:12;-3.60;92.20
22173;DHT22;11252;50.596;17.648;2023-03-01T00:28:40;-3.60;92.20
22173;DHT22;11252;50.596;17.648;2023-03-01T00:31:13;-3.60;92.20
22173;DHT22;11252;50.596;17.648;2023-03-01T00:33:42;-3.60;92.20
22173;DHT22;11252;50.596;17.648;2023-03-01T00:36:11;-3.60;92.20
22173;DHT22;11252;50.596;17.648;2023-03-01T00:38:41;-3.70;92.20
22173;DHT22;11252;50.596;17.648;2023-03-01T00:41:11;-3.70;92.20
22173;DHT22;11252;50.596;17.648;2023-03-01T00:43:39;-3.70;92.20
22173;DHT22;11252;50.596;17.648;2023-03-01T00:46:09;-3.70;92.20
22173;DHT22;11252;50.596;17.648;2023-03-01T00:48:37;-3.70;92.20
22173;DHT22;11252;50.596;17.648;2023-03-01T00:51:09;-3.70;92.20
22173;DHT22;11252;50.596;17.648;2023-03-01T00:53:37;-3.80;92.20
22173;DHT22;11252;50.596;17.648;2023-03-01T00:56:05;-3.80;92.20
22173;DHT22;11252;50.596;17.648;2023-03-01T00:58:34;-3.80;92.20
22173;DHT22;11252;50.596;17.648;2023-03-01T01:01:14;-3.80;92.20
22173;DHT22;11252;50.596;17.648;2023-03-01T01:03:52;-3.80;92.20
22173;DHT22;11252;50.596;17.648;2023-03-01T01:06:23;-3.90;92.20
22173;DHT22;11252;50.596;17.648;2023-03-01T01:08:51;-3.90;92.20
22173;DHT22;11252;50.596;17.648;2023-03-01T01:11:20;-3.90;92.20
22173;DHT22;11252;50.596;17.648;2023-03-01T01:13:48;-4.00;92.20
22173;DHT22;11252;50.596;17.648;2023-03-01T01:16:18;-4.10;92.20
22173;DHT22;11252;50.596;17.648;2023-03-01T01:18:46;-4.10;92.20
22173;DHT22;11252;50.596;17.648;2023-03-01T01:21:17;-4.10;92.20
22173;DHT22;11252;50.596;17.648;2023-03-01T01:23:45;-4.10;92.20
22173;DHT22;11252;50.596;17.648;2023-03-01T01:26:18;-4.20;92.20
22173;DHT22;11252;50.596;17.648;2023-03-01T01:28:47;-4.20;92.20
22173;DHT22;11252;50.596;17.648;2023-03-01T01:31:14;-4.20;92.20
22173;DHT22;11252;50.596;17.648;2023-03-01T01:33:42;-4.20;92.20
22173;DHT22;11252;50.596;17.648;2023-03-01T01:36:10;-4.30;92.20
22173;DHT22;11252;50.596;17.648;2023-03-01T01:38:38;-4.30;92.20
22173;DHT22;11252;50.596;17.648;2023-03-01T01:41:06;-4.30;92.20
22173;DHT22;11252;50.596;17.648;2023-03-01T01:43:36;-4.30;92.20
22173;DHT22;11252;50.596;17.648;2023-03-01T01:48:52;-4.30;92.20
22173;DHT22;11252;50.596;17.648;2023-03-01T01:51:25;-4.40;92.20
22173;DHT22;11252;50.596;17.648;2023-03-01T01:53:59;-4.40;92.20
22173;DHT22;11252;50.596;17.648;2023-03-01T01:56:29;-4.50;92.20
22173;DHT22;11252;50.596;17.648;2023-03-01T01:58:57;-4.40;92.20
22173;DHT22;11252;50.596;17.648;2023-03-01T02:01:25;-4.40;92.20
22173;DHT22;11252;50.596;17.648;2023-03-01T02:03:53;-4.30;92.20
22173;DHT22;11252;50.596;17.648;2023-03-01T02:06:27;-4.30;92.20
22173;DHT22;11252;50.596;17.648;2023-03-01T02:09:03;-4.40;92.20
22173;DHT22;11252;50.596;17.648;2023-03-01T02:11:32;-4.40;92.20
22173;DHT22;11252;50.596;17.648;2023-03-01T02:14:00;-4.40;92.20
22173;DHT22;11252;50.596;17.648;2023-03-01T02:16:28;-4.40;92.20
22173;DHT22;11252;50.596;17.648;2023-03-01T02:18:57;-4.50;92.20
22173;DHT22;11252;50.596;17.648;2023-03-01T02:26:51;-4.50;92.20
22173;DHT22;11252;50.596;17.648;2023-03-01T02:29:20;-4.50;92.20
22173;DHT22;11252;50.596;17.648;2023-03-01T02:31:49;-4.50;92.20
22173;DHT22;11252;50.596;17.648;2023-03-01T02:34:23;-4.50;92.20
22173;DHT22;11252;50.596;17.648;2023-03-01T02:37:05;-4.50;92.20
22173;DHT22;11252;50.596;17.648;2023-03-01T02:39:46;-4.40;92.20
22173;DHT22;11252;50.596;17.648;2023-03-01T02:42:18;-4.40;92.20
22173;DHT22;11252;50.596;17.648;2023-03-01T02:44:49;-4.40;92.20
22173;DHT22;11252;50.596;17.648;2023-03-01T02:47:17;-4.40;92.20
22173;DHT22;11252;50.596;17.648;2023-03-01T02:49:44;-4.50;92.20
22173;DHT22;11252;50.596;17.648;2023-03-01T02:52:26;-4.50;92.20
22173;DHT22;11252;50.596;17.648;2023-03-01T02:55:11;-4.50;92.20
22173;DHT22;11252;50.596;17.648;2023-03-01T02:57:42;-4.50;92.20
22173;DHT22;11252;50.596;17.648;2023-03-01T03:00:13;-4.50;92.20
22173;DHT22;11252;50.596;17.648;2023-03-01T03:02:49;-4.60;92.20
22173;DHT22;11252;50.596;17.648;2023-03-01T03:05:20;-4.70;92.20
22173;DHT22;11252;50.596;17.648;2023-03-01T03:07:48;-4.70;92.20
22173;DHT22;11252;50.596;17.648;2023-03-01T03:10:23;-4.70;92.20
22173;DHT22;11252;50.596;17.648;2023-03-01T03:12:52;-4.70;92.20
22173;DHT22;11252;50.596;17.648;2023-03-01T03:15:21;-4.70;92.20
22173;DHT22;11252;50.596;17.648;2023-03-01T03:17:49;-4.70;92.20
22173;DHT22;11252;50.596;17.648;2023-03-01T03:20:18;-4.70;92.20
22173;DHT22;11252;50.596;17.648;2023-03-01T03:22:48;-4.70;92.20
22173;DHT22;11252;50.596;17.648;2023-03-01T03:25:17;-4.80;92.20
22173;DHT22;11252;50.596;17.648;2023-03-01T03:27:46;-4.80;92.20
22173;DHT22;11252;50.596;17.648;2023-03-01T03:30:17;-4.80;92.20
22173;DHT22;11252;50.596;17.648;2023-03-01T03:32:46;-4.80;92.20
22173;DHT22;11252;50.596;17.648;2023-03-01T03:35:28;-4.80;92.20
22173;DHT22;11252;50.596;17.648;2023-03-01T03:38:00;-4.80;92.20
22173;DHT22;11252;50.596;17.648;2023-03-01T03:40:38;-4.80;92.20
22173;DHT22;11252;50.596;17.648;2023-03-01T03:43:12;-4.90;92.20
22173;DHT22;11252;50.596;17.648;2023-03-01T03:45:40;-4.90;92.20
22173;DHT22;11252;50.596;17.648;2023-03-01T03:48:09;-4.90;92.20
22173;DHT22;11252;50.596;17.648;2023-03-01T03:50:38;-4.90;92.20
22173;DHT22;11252;50.596;17.648;2023-03-01T03:53:11;-4.90;92.20
22173;DHT22;11252;50.596;17.648;2023-03-01T03:55:39;-4.90;92.20
22173;DHT22;11252;50.596;17.648;2023-03-01T03:58:09;-5.00;92.20
22173;DHT22;11252;50.596;17.648;2023-03-01T04:00:42;-5.10;92.20
22173;DHT22;11252;50.596;17.648;2023-03-01T04:03:12;-5.10;92.20
22173;DHT22;11252;50.596;17.648;2023-03-01T04:05:41;-5.10;92.20
22173;DHT22;11252;50.596;17.648;2023-03-01T04:08:08;-5.00;92.20
22173;DHT22;11252;50.596;17.648;2023-03-01T04:10:45;-5.10;92.20
22173;DHT22;11252;50.596;17.648;2023-03-01T04:13:15;-5.10;92.20
22173;DHT22;11252;50.596;17.648;2023-03-01T04:15:43;-5.10;92.20
22173;DHT22;11252;50.596;17.648;2023-03-01T04:18:13;-5.20;92.20
22173;DHT22;11252;50.596;17.648;2023-03-01T04:20:42;-5.20;92.20
22173;DHT22;11252;50.596;17.648;2023-03-01T04:23:15;-5.20;92.20
22173;DHT22;11252;50.596;17.648;2023-03-01T04:28:13;-5.30;92.20
22173;DHT22;11252;50.596;17.648;2023-03-01T04:30:41;-5.30;92.20
22173;DHT22;11252;50.596;17.648;2023-03-01T04:33:10;-5.30;92.20
22173;DHT22;11252;50.596;17.648;2023-03-01T04:35:38;-5.30;92.20
22173;DHT22;11252;50.596;17.648;2023-03-01T04:38:07;-5.30;92.20
22173;DHT22;11252;50.596;17.648;2023-03-01T04:40:35;-5.30;92.20
22173;DHT22;11252;50.596;17.648;2023-03-01T04:43:03;-5.30;92.20
22173;DHT22;11252;50.596;17.648;2023-03-01T04:45:32;-5.30;92.20
22173;DHT22;11252;50.596;17.648;2023-03-01T04:48:02;-5.30;92.20
22173;DHT22;11252;50.596;17.648;2023-03-01T04:50:30;-5.30;92.20
22173;DHT22;11252;50.596;17.648;2023-03-01T04:52:57;-5.40;92.20
22173;DHT22;11252;50.596;17.648;2023-03-01T04:55:28;-5.40;92.20
22173;DHT22;11252;50.596;17.648;2023-03-01T04:57:56;-5.40;92.20
22173;DHT22;11252;50.596;17.648;2023-03-01T05:00:24;-5.40;92.20
22173;DHT22;11252;50.596;17.648;2023-03-01T05:02:54;-5.40;92.20
22173;DHT22;11252;50.596;17.648;2023-03-01T05:05:34;-5.40;92.20
22173;DHT22;11252;50.596;17.648;2023-03-01T05:08:05;-5.40;92.20
22173;DHT22;11252;50.596;17.648;2023-03-01T05:10:34;-5.40;92.20
22173;DHT22;11252;50.596;17.648;2023-03-01T05:13:03;-5.50;92.20
22173;DHT22;11252;50.596;17.648;2023-03-01T05:15:31;-5.50;92.20
22173;DHT22;11252;50.596;17.648;2023-03-01T05:18:00;-5.40;92.20
22173;DHT22;11252;50.596;17.648;2023-03-01T05:20:29;-5.40;92.20
22173;DHT22;11252;50.596;17.648;2023-03-01T05:22:59;-5.50;92.20
22173;DHT22;11252;50.596;17.648;2023-03-01T05:25:27;-5.50;92.20
22173;DHT22;11252;50.596;17.648;2023-03-01T05:27:54;-5.50;92.20
22173;DHT22;11252;50.596;17.648;2023-03-01T05:30:22;-5.50;92.20
22173;DHT22;11252;50.596;17.648;2023-03-01T05:32:50;-5.50;92.20
22173;DHT22;11252;50.596;17.648;2023-03-01T05:35:23;-5.50;92.20
22173;DHT22;11252;50.596;17.648;2023-03-01T05:37:51;-5.50;92.20
22173;DHT22;11252;50.596;17.648;2023-03-01T05:40:21;-5.50;92.20
22173;DHT22;11252;50.596;17.648;2023-03-01T05:42:52;-5.50;92.20
22173;DHT22;11252;50.596;17.648;2023-03-01T05:45:21;-5.50;92.20
22173;DHT22;11252;50.596;17.648;2023-03-01T05:47:50;-5.50;92.20
22173;DHT22;11252;50.596;17.648;2023-03-01T05:50:25;-5.50;92.20
22173;DHT22;11252;50.596;17.648;2023-03-01T05:53:05;-5.50;92.20
22173;DHT22;11252;50.596;17.648;2023-03-01T05:55:33;-5.40;92.20
22173;DHT22;11252;50.596;17.648;2023-03-01T05:58:04;-5.40;92.20
22173;DHT22;11252;50.596;17.648;2023-03-01T06:00:33;-5.40;92.20
22173;DHT22;11252;50.596;17.648;2023-03-01T06:03:01;-5.40;92.20
22173;DHT22;11252;50.596;17.648;2023-03-01T06:05:29;-5.30;92.20
22173;DHT22;11252;50.596;17.648;2023-03-01T06:08:00;-5.30;92.20
22173;DHT22;11252;50.596;17.648;2023-03-01T06:10:29;-5.30;92.20
22173;DHT22;11252;50.596;17.648;2023-03-01T06:12:57;-5.30;92.20
22173;DHT22;11252;50.596;17.648;2023-03-01T06:15:25;-5.20;92.20
22173;DHT22;11252;50.596;17.648;2023-03-01T06:17:54;-5.10;92.20
22173;DHT22;11252;50.596;17.648;2023-03-01T06:20:27;-5.10;92.20
22173;DHT22;11252;50.596;17.648;2023-03-01T06:22:55;-5.00;92.20
22173;DHT22;11252;50.596;17.648;2023-03-01T06:25:24;-4.90;92.20
22173;DHT22;11252;50.596;17.648;2023-03-01T06:27:52;-4.70;92.20
22173;DHT22;11252;50.596;17.648;2023-03-01T06:30:21;-4.60;92.20
22173;DHT22;11252;50.596;17.648;2023-03-01T06:32:49;-4.50;92.20
22173;DHT22;11252;50.596;17.648;2023-03-01T06:35:18;-4.50;92.20
22173;DHT22;11252;50.596;17.648;2023-03-01T06:37:47;-4.30;92.20
22173;DHT22;11252;50.596;17.648;2023-03-01T06:40:15;-4.20;92.20
22173;DHT22;11252;50.596;17.648;2023-03-01T06:42:47;-4.10;92.20
22173;DHT22;11252;50.596;17.648;2023-03-01T06:45:17;-4.10;92.20
22173;DHT22;11252;50.596;17.648;2023-03-01T06:47:45;-4.00;92.20
22173;DHT22;11252;50.596;17.648;2023-03-01T06:50:14;-4.00;92.20
22173;DHT22;11252;50.596;17.648;2023-03-01T06:52:41;-3.90;92.20
22173;DHT22;11252;50.596;17.648;2023-03-01T06:55:12;-3.80;92.20
22173;DHT22;11252;50.596;17.648;2023-03-01T06:57:39;-3.70;92.20
22173;DHT22;11252;50.596;17.648;2023-03-01T07:00:07;-3.60;92.20
22173;DHT22;11252;50.596;17.648;2023-03-01T07:02:35;-3.30;92.20
22173;DHT22;11252;50.596;17.648;2023-03-01T07:05:05;-3.20;92.20
22173;DHT22;11252;50.596;17.648;2023-03-01T07:07:33;-3.30;92.20
22173;DHT22;11252;50.596;17.648;2023-03-01T07:10:01;-3.30;92.20
22173;DHT22;11252;50.596;17.648;2023-03-01T07:12:28;-3.20;92.20
22173;DHT22;11252;50.596;17.648;2023-03-01T07:14:56;-3.00;92.20
22173;DHT22;11252;50.596;17.648;2023-03-01T07:17:23;-2.90;92.20
22173;DHT22;11252;50.596;17.648;2023-03-01T07:19:51;-2.80;92.20
22173;DHT22;11252;50.596;17.648;2023-03-01T07:22:18;-2.80;92.20
22173;DHT22;11252;50.596;17.648;2023-03-01T07:24:46;-2.90;92.20
22173;DHT22;11252;50.596;17.648;2023-03-01T07:27:13;-2.80;92.20
22173;DHT22;11252;50.596;17.648;2023-03-01T07:29:41;-2.80;92.20
22173;DHT22;11252;50.596;17.648;2023-03-01T07:32:08;-2.70;92.20
22173;DHT22;11252;50.596;17.648;2023-03-01T07:34:36;-2.60;92.20
22173;DHT22;11252;50.596;17.648;2023-03-01T07:37:04;-2.50;92.20
22173;DHT22;11252;50.596;17.648;2023-03-01T07:39:32;-2.50;92.20
22173;DHT22;11252;50.596;17.648;2023-03-01T07:41:59;-2.50;92.20
22173;DHT22;11252;50.596;17.648;2023-03-01T07:44:26;-2.50;92.20
22173;DHT22;11252;50.596;17.648;2023-03-01T07:46:55;-2.40;92.20
22173;DHT22;11252;50.596;17.648;2023-03-01T07:49:25;-2.30;92.20
22173;DHT22;11252;50.596;17.648;2023-03-01T07:51:53;-2.30;92.20
22173;DHT22;11252;50.596;17.648;2023-03-01T07:54:21;-2.20;92.20
22173;DHT22;11252;50.596;17.648;2023-03-01T07:56:48;-2.10;92.20
22173;DHT22;11252;50.596;17.648;2023-03-01T07:59:16;-2.10;92.20
22173;DHT22;11252;50.596;17.648;2023-03-01T08:01:43;-2.00;92.20
22173;DHT22;11252;50.596;17.648;2023-03-01T08:04:10;-2.00;92.20
22173;DHT22;11252;50.596;17.648;2023-03-01T08:06:38;-1.90;92.20
22173;DHT22;11252;50.596;17.648;2023-03-01T08:09:05;-1.80;92.20
22173;DHT22;11252;50.596;17.648;2023-03-01T08:11:33;-1.70;92.20
22173;DHT22;11252;50.596;17.648;2023-03-01T08:14:01;-1.60;92.20
22173;DHT22;11252;50.596;17.648;2023-03-01T08:16:28;-1.40;92.20
22173;DHT22;11252;50.596;17.648;2023-03-01T08:18:56;-1.30;92.20
22173;DHT22;11252;50.596;17.648;2023-03-01T08:21:27;-1.20;92.20
22173;DHT22;11252;50.596;17.648;2023-03-01T08:23:55;-1.00;92.20
22173;DHT22;11252;50.596;17.648;2023-03-01T08:26:22;-0.90;92.20
22173;DHT22;11252;50.596;17.648;2023-03-01T08:28:50;-0.70;92.20
22173;DHT22;11252;50.596;17.648;2023-03-01T08:31:23;-0.60;92.20
22173;DHT22;11252;50.596;17.648;2023-03-01T08:33:52;-0.40;92.20
22173;DHT22;11252;50.596;17.648;2023-03-01T08:36:27;-0.10;92.20
22173;DHT22;11252;50.596;17.648;2023-03-01T08:38:55;0.20;92.20
22173;DHT22;11252;50.596;17.648;2023-03-01T08:41:24;0.70;92.20
22173;DHT22;11252;50.596;17.648;2023-03-01T08:43:51;1.20;92.20
22173;DHT22;11252;50.596;17.648;2023-03-01T08:46:19;1.40;92.20
22173;DHT22;11252;50.596;17.648;2023-03-01T08:48:47;1.70;92.20
22173;DHT22;11252;50.596;17.648;2023-03-01T08:51:18;2.10;92.20
22173;DHT22;11252;50.596;17.648;2023-03-01T08:53:46;2.50;92.20
22173;DHT22;11252;50.596;17.648;2023-03-01T08:56:14;3.00;92.20
22173;DHT22;11252;50.596;17.648;2023-03-01T08:58:45;3.40;92.20
22173;DHT22;11252;50.596;17.648;2023-03-01T09:01:15;3.80;92.20
22173;DHT22;11252;50.596;17.648;2023-03-01T09:03:43;4.20;92.20
22173;DHT22;11252;50.596;17.648;2023-03-01T09:06:11;4.60;91.40
22173;DHT22;11252;50.596;17.648;2023-03-01T09:08:40;4.90;91.80
22173;DHT22;11252;50.596;17.648;2023-03-01T09:11:10;5.60;89.30
22173;DHT22;11252;50.596;17.648;2023-03-01T09:13:38;6.00;89.40
22173;DHT22;11252;50.596;17.648;2023-03-01T09:16:08;6.40;87.00
22173;DHT22;11252;50.596;17.648;2023-03-01T09:18:37;6.60;85.80
22173;DHT22;11252;50.596;17.648;2023-03-01T09:21:06;6.90;84.20
22173;DHT22;11252;50.596;17.648;2023-03-01T09:23:39;7.20;84.30
22173;DHT22;11252;50.596;17.648;2023-03-01T09:26:08;7.60;84.10
22173;DHT22;11252;50.596;17.648;2023-03-01T09:28:37;8.00;82.90
22173;DHT22;11252;50.596;17.648;2023-03-01T09:31:04;8.30;81.10
22173;DHT22;11252;50.596;17.648;2023-03-01T09:33:33;8.30;79.90
22173;DHT22;11252;50.596;17.648;2023-03-01T09:36:06;8.60;79.60
22173;DHT22;11252;50.596;17.648;2023-03-01T09:38:34;9.20;80.00
22173;DHT22;11252;50.596;17.648;2023-03-01T09:41:01;9.50;79.00
22173;DHT22;11252;50.596;17.648;2023-03-01T09:43:51;9.80;78.80
22173;DHT22;11252;50.596;17.648;2023-03-01T09:46:25;10.20;76.30
22173;DHT22;11252;50.596;17.648;2023-03-01T09:49:09;10.30;74.60
22173;DHT22;11252;50.596;17.648;2023-03-01T09:51:38;10.50;75.30
22173;DHT22;11252;50.596;17.648;2023-03-01T09:54:06;10.70;73.90
22173;DHT22;11252;50.596;17.648;2023-03-01T09:56:40;11.00;73.50
22173;DHT22;11252;50.596;17.648;2023-03-01T10:02:57;11.70;70.00
22173;DHT22;11252;50.596;17.648;2023-03-01T10:05:35;12.30;68.20
22173;DHT22;11252;50.596;17.648;2023-03-01T10:08:36;12.50;65.80
22173;DHT22;11252;50.596;17.648;2023-03-01T10:11:22;12.70;65.80
22173;DHT22;11252;50.596;17.648;2023-03-01T10:19:17;12.70;63.60
22173;DHT22;11252;50.596;17.648;2023-03-01T10:21:48;13.30;63.80
22173;DHT22;11252;50.596;17.648;2023-03-01T10:24:19;13.50;64.20
22173;DHT22;11252;50.596;17.648;2023-03-01T10:26:57;13.60;62.60
22173;DHT22;11252;50.596;17.648;2023-03-01T10:29:30;13.90;63.60
22173;DHT22;11252;50.596;17.648;2023-03-01T10:32:01;14.10;63.20
22173;DHT22;11252;50.596;17.648;2023-03-01T10:34:33;14.10;61.90
22173;DHT22;11252;50.596;17.648;2023-03-01T10:37:09;14.60;61.30
22173;DHT22;11252;50.596;17.648;2023-03-01T10:39:36;14.90;59.70
22173;DHT22;11252;50.596;17.648;2023-03-01T10:42:09;14.00;58.40
22173;DHT22;11252;50.596;17.648;2023-03-01T10:44:48;14.50;60.80
22173;DHT22;11252;50.596;17.648;2023-03-01T10:49:59;15.20;56.90
22173;DHT22;11252;50.596;17.648;2023-03-01T10:52:39;14.10;60.20
22173;DHT22;11252;50.596;17.648;2023-03-01T10:55:24;14.10;61.40
22173;DHT22;11252;50.596;17.648;2023-03-01T11:00:54;14.70;60.50
22173;DHT22;11252;50.596;17.648;2023-03-01T11:03:30;14.50;58.90
22173;DHT22;11252;50.596;17.648;2023-03-01T11:06:05;14.80;60.40
22173;DHT22;11252;50.596;17.648;2023-03-01T11:08:44;14.50;58.00
22173;DHT22;11252;50.596;17.648;2023-03-01T11:17:05;15.00;59.20
22173;DHT22;11252;50.596;17.648;2023-03-01T11:19:33;15.10;58.20
22173;DHT22;11252;50.596;17.648;2023-03-01T11:22:12;15.10;57.60
22173;DHT22;11252;50.596;17.648;2023-03-01T11:24:44;14.70;56.80
22173;DHT22;11252;50.596;17.648;2023-03-01T11:27:31;14.10;58.20
22173;DHT22;11252;50.596;17.648;2023-03-01T11:30:16;13.20;59.60
22173;DHT22;11252;50.596;17.648;2023-03-01T11:32:55;12.90;60.70
22173;DHT22;11252;50.596;17.648;2023-03-01T11:35:26;12.50;60.90
22173;DHT22;11252;50.596;17.648;2023-03-01T11:38:22;12.20;61.00
22173;DHT22;11252;50.596;17.648;2023-03-01T11:41:14;12.50;62.10
22173;DHT22;11252;50.596;17.648;2023-03-01T11:43:57;13.00;61.30
22173;DHT22;11252;50.596;17.648;2023-03-01T11:46:36;13.20;61.40
22173;DHT22;11252;50.596;17.648;2023-03-01T11:49:34;13.40;60.30
22173;DHT22;11252;50.596;17.648;2023-03-01T11:52:19;13.50;59.90
22173;DHT22;11252;50.596;17.648;2023-03-01T11:55:42;13.20;60.90
22173;DHT22;11252;50.596;17.648;2023-03-01T12:01:51;14.40;60.00
22173;DHT22;11252;50.596;17.648;2023-03-01T12:07:37;15.50;57.80
22173;DHT22;11252;50.596;17.648;2023-03-01T12:10:26;15.70;56.20
22173;DHT22;11252;50.596;17.648;2023-03-01T12:13:25;16.00;55.10
22173;DHT22;11252;50.596;17.648;2023-03-01T12:19:39;15.40;57.10
22173;DHT22;11252;50.596;17.648;2023-03-01T12:22:28;15.60;56.40
22173;DHT22;11252;50.596;17.648;2023-03-01T12:25:28;15.80;56.90
22173;DHT22;11252;50.596;17.648;2023-03-01T12:28:02;16.50;54.30
22173;DHT22;11252;50.596;17.648;2023-03-01T12:38:41;16.90;55.50
22173;DHT22;11252;50.596;17.648;2023-03-01T12:47:04;17.50;54.00
22173;DHT22;11252;50.596;17.648;2023-03-01T12:49:59;17.20;54.00
22173;DHT22;11252;50.596;17.648;2023-03-01T12:52:39;17.80;53.40
22173;DHT22;11252;50.596;17.648;2023-03-01T13:00:36;17.80;54.40
22173;DHT22;11252;50.596;17.648;2023-03-01T13:06:18;18.00;53.50
22173;DHT22;11252;50.596;17.648;2023-03-01T13:11:19;18.30;51.60
22173;DHT22;11252;50.596;17.648;2023-03-01T13:13:50;17.90;53.50
22173;DHT22;11252;50.596;17.648;2023-03-01T13:16:40;18.20;52.10
22173;DHT22;11252;50.596;17.648;2023-03-01T13:19:15;18.20;53.00
22173;DHT22;11252;50.596;17.648;2023-03-01T13:21:44;17.80;52.90
22173;DHT22;11252;50.596;17.648;2023-03-01T13:29:50;17.10;53.40
22173;DHT22;11252;50.596;17.648;2023-03-01T13:32:34;16.80;54.60
22173;DHT22;11252;50.596;17.648;2023-03-01T13:37:46;17.00;54.80
22173;DHT22;11252;50.596;17.648;2023-03-01T13:42:50;15.80;53.50
22173;DHT22;11252;50.596;17.648;2023-03-01T13:45:42;15.30;56.00
22173;DHT22;11252;50.596;17.648;2023-03-01T13:48:15;15.60;55.20
22173;DHT22;11252;50.596;17.648;2023-03-01T13:50:50;16.50;55.80
22173;DHT22;11252;50.596;17.648;2023-03-01T13:53:21;17.00;54.40
22173;DHT22;11252;50.596;17.648;2023-03-01T13:56:01;17.60;53.10
22173;DHT22;11252;50.596;17.648;2023-03-01T13:58:32;17.80;52.30
22173;DHT22;11252;50.596;17.648;2023-03-01T14:01:02;17.80;51.10
22173;DHT22;11252;50.596;17.648;2023-03-01T14:03:31;17.60;53.20
22173;DHT22;11252;50.596;17.648;2023-03-01T14:08:42;17.10;53.30
22173;DHT22;11252;50.596;17.648;2023-03-01T14:17:41;16.40;54.00
22173;DHT22;11252;50.596;17.648;2023-03-01T14:22:45;16.70;54.60
22173;DHT22;11252;50.596;17.648;2023-03-01T14:30:44;15.30;54.50
22173;DHT22;11252;50.596;17.648;2023-03-01T14:33:21;15.10;56.00
22173;DHT22;11252;50.596;17.648;2023-03-01T14:35:58;15.40;56.50
22173;DHT22;11252;50.596;17.648;2023-03-01T14:38:44;15.10;54.80
22173;DHT22;11252;50.596;17.648;2023-03-01T14:41:25;15.40;55.90
22173;DHT22;11252;50.596;17.648;2023-03-01T14:44:00;16.00;55.00
22173;DHT22;11252;50.596;17.648;2023-03-01T14:46:37;16.20;55.00
22173;DHT22;11252;50.596;17.648;2023-03-01T14:49:17;16.00;55.20
22173;DHT22;11252;50.596;17.648;2023-03-01T14:52:01;16.20;55.00
22173;DHT22;11252;50.596;17.648;2023-03-01T14:54:34;16.40;54.30
22173;DHT22;11252;50.596;17.648;2023-03-01T14:57:03;16.10;54.30
22173;DHT22;11252;50.596;17.648;2023-03-01T14:59:33;15.70;55.90
22173;DHT22;11252;50.596;17.648;2023-03-01T15:02:02;15.50;55.80
22173;DHT22;11252;50.596;17.648;2023-03-01T15:04:30;15.40;55.30
22173;DHT22;11252;50.596;17.648;2023-03-01T15:06:58;15.40;56.10
22173;DHT22;11252;50.596;17.648;2023-03-01T15:09:34;15.10;54.90
22173;DHT22;11252;50.596;17.648;2023-03-01T15:12:34;14.90;56.40
22173;DHT22;11252;50.596;17.648;2023-03-01T15:15:18;14.70;56.50
22173;DHT22;11252;50.596;17.648;2023-03-01T15:17:51;14.60;56.70
22173;DHT22;11252;50.596;17.648;2023-03-01T15:20:19;14.40;56.50
22173;DHT22;11252;50.596;17.648;2023-03-01T15:22:53;14.30;57.50
22173;DHT22;11252;50.596;17.648;2023-03-01T15:25:24;14.10;58.10
22173;DHT22;11252;50.596;17.648;2023-03-01T15:27:54;13.90;57.70
22173;DHT22;11252;50.596;17.648;2023-03-01T15:30:33;13.80;57.60
22173;DHT22;11252;50.596;17.648;2023-03-01T15:35:58;13.60;56.90
22173;DHT22;11252;50.596;17.648;2023-03-01T15:41:24;12.70;57.30
22173;DHT22;11252;50.596;17.648;2023-03-01T15:43:53;11.90;58.10
22173;DHT22;11252;50.596;17.648;2023-03-01T15:46:34;11.70;59.50
22173;DHT22;11252;50.596;17.648;2023-03-01T15:49:04;11.30;59.70
22173;DHT22;11252;50.596;17.648;2023-03-01T15:51:36;10.70;60.70
22173;DHT22;11252;50.596;17.648;2023-03-01T15:54:10;10.00;62.00
22173;DHT22;11252;50.596;17.648;2023-03-01T15:56:40;9.50;63.40
22173;DHT22;11252;50.596;17.648;2023-03-01T15:59:10;9.00;63.80
22173;DHT22;11252;50.596;17.648;2023-03-01T16:01:44;8.60;64.70
22173;DHT22;11252;50.596;17.648;2023-03-01T16:04:13;8.20;65.70
22173;DHT22;11252;50.596;17.648;2023-03-01T16:06:47;7.90;65.80
22173;DHT22;11252;50.596;17.648;2023-03-01T16:09:25;7.60;66.70
22173;DHT22;11252;50.596;17.648;2023-03-01T16:11:53;7.30;67.60
22173;DHT22;11252;50.596;17.648;2023-03-01T16:14:20;7.30;68.00
22173;DHT22;11252;50.596;17.648;2023-03-01T16:16:49;7.20;68.70
22173;DHT22;11252;50.596;17.648;2023-03-01T16:19:16;7.20;69.20
22173;DHT22;11252;50.596;17.648;2023-03-01T16:21:44;7.10;68.80
22173;DHT22;11252;50.596;17.648;2023-03-01T16:24:13;6.90;69.10
22173;DHT22;11252;50.596;17.648;2023-03-01T16:26:41;6.80;69.70
22173;DHT22;11252;50.596;17.648;2023-03-01T16:29:09;6.70;69.80
22173;DHT22;11252;50.596;17.648;2023-03-01T16:31:37;6.60;70.30
22173;DHT22;11252;50.596;17.648;2023-03-01T16:34:05;6.50;71.10
22173;DHT22;11252;50.596;17.648;2023-03-01T16:36:32;6.40;71.40
22173;DHT22;11252;50.596;17.648;2023-03-01T16:39:00;6.30;71.70
22173;DHT22;11252;50.596;17.648;2023-03-01T16:41:29;6.20;72.30
22173;DHT22;11252;50.596;17.648;2023-03-01T16:43:57;6.10;72.50
22173;DHT22;11252;50.596;17.648;2023-03-01T16:46:26;5.90;72.60
22173;DHT22;11252;50.596;17.648;2023-03-01T16:48:55;5.80;73.10
22173;DHT22;11252;50.596;17.648;2023-03-01T16:51:23;5.70;73.20
22173;DHT22;11252;50.596;17.648;2023-03-01T16:53:51;5.60;73.30
22173;DHT22;11252;50.596;17.648;2023-03-01T16:56:19;5.50;73.70
22173;DHT22;11252;50.596;17.648;2023-03-01T16:58:47;5.40;74.00
22173;DHT22;11252;50.596;17.648;2023-03-01T17:01:16;5.30;74.40
22173;DHT22;11252;50.596;17.648;2023-03-01T17:03:46;5.20;74.70
22173;DHT22;11252;50.596;17.648;2023-03-01T17:06:17;5.10;75.20
22173;DHT22;11252;50.596;17.648;2023-03-01T17:08:45;5.00;75.30
22173;DHT22;11252;50.596;17.648;2023-03-01T17:11:16;5.00;75.10
22173;DHT22;11252;50.596;17.648;2023-03-01T17:13:44;4.80;75.60
22173;DHT22;11252;50.596;17.648;2023-03-01T17:16:14;4.60;77.10
22173;DHT22;11252;50.596;17.648;2023-03-01T17:18:43;4.50;78.20
22173;DHT22;11252;50.596;17.648;2023-03-01T17:21:12;4.30;79.10
22173;DHT22;11252;50.596;17.648;2023-03-01T17:23:42;4.10;79.50
22173;DHT22;11252;50.596;17.648;2023-03-01T17:26:19;4.00;80.40